Meteo Giornale » Osservazioni meteo Svizzera » Lugano

ore: 13:20 - Osservazioni Meteo Lugano
Lat. 46° 0' N Lon. 8° 58' E Alt. 273 metri s.l.m.

poco_nuvoloso Europe/Zurich

30 °C

Poco Nuvoloso

Temp. 24 Ore

15 °C

30 °C

Sud

9.3 Km/h

Dew point 14 °C

Umidità 37 %

Visibilità  10 Km

Il sole sorge alle ore 05:48

Il sole tramonta alle ore 21:11

Data e Ora Cielo e Fenomeni T °C DP °C Um. % Pres. hPa Vis. km Vento km/h
Oggi h: 13:20 poco_nuvoloso Poco Nuvoloso 30 14 37 1013 10 S 9.3
Oggi h: 12:50 sereno Sereno 28 17 51 1013 10 S 11.1
Oggi h: 12:20 sereno Sereno 27 15 47 1013 10 S 7.4
Oggi h: 11:50 sereno Sereno 26 16 54 1013 10 S 7.4
Oggi h: 11:20 sereno Sereno 25 17 61 1013 10 N 3.7
Oggi h: 10:50 sereno Sereno 24 16 60 1013 10 N 3.7
Oggi h: 10:20 sereno Sereno 24 16 60 1013 10 N 1.8
Oggi h: 09:50 sereno Sereno 23 15 60 1013 10 N 3.7
Oggi h: 09:20 sereno Sereno 21 17 77 1013 10 N 1.8
Oggi h: 08:50 sereno Sereno 20 16 77 1013 10 N 1.8
Oggi h: 08:20 sereno Sereno 19 17 88 1013 10 N 1.8
Oggi h: 07:50 sereno Sereno 16 16 100 1013 10 N 1.8
Oggi h: 07:20 sereno Sereno 16 15 93 1013 10 N 1.8
Oggi h: 06:50 sereno Sereno 15 15 100 1013 10 N 5.5
Oggi h: 06:20 sereno Sereno 15 15 100 1013 10 N 3.7
Oggi h: 05:50 sereno Sereno 15 15 100 1012 10 N 3.7
Oggi h: 05:20 sereno Sereno 16 15 93 1012 10 N 3.7
Oggi h: 04:50 sereno Sereno 16 15 93 1012 10 N 5.5
Oggi h: 04:20 sereno Sereno 16 16 100 1012 10 N 7.4
Oggi h: 03:50 sereno Sereno 16 16 100 1012 10 N 3.7
Oggi h: 03:20 sereno Sereno 16 16 100 1012 10 N 3.7
Oggi h: 02:50 sereno Sereno 17 16 93 1012 9 N 1.8
Oggi h: 02:20 sereno Sereno 17 16 93 1012 10 N 3.7
Oggi h: 01:50 sereno Sereno 17 16 93 1012 9 N 3.7
Oggi h: 01:20 sereno Sereno 17 16 93 1012 10 N 3.7
Oggi h: 00:50 sereno Sereno 18 17 93 1012 10 N 3.7
Oggi h: 00:20 sereno Sereno 18 17 93 1012 10 N 3.7
Ieri h: 23:50 sereno Sereno 18 18 100 1012 10 N 3.7
Ieri h: 23:20 sereno Sereno 18 17 93 1012 8 N 1.8
Ieri h: 22:50 sereno Sereno 19 18 93 1012 10 N 3.7
Ieri h: 22:20 sereno Sereno 19 18 93 1012 10 N 1.8
Ieri h: 21:50 molto_nuvoloso Molto Nuvoloso 19 18 93 1012 10 N 1.8
Ieri h: 21:20 molto_nuvoloso Molto Nuvoloso 20 18 88 1012 10 N 3.7
Ieri h: 20:50 molto_nuvoloso Molto Nuvoloso 21 18 82 1012 10 N 3.7
Ieri h: 20:20 molto_nuvoloso Molto Nuvoloso 21 19 88 1012 10 N 5.5
Ieri h: 19:50 nuvoloso Nuvoloso 21 18 82 1011 10 N 1.8
Ieri h: 19:20 nuvoloso_piovaschi Rovescio di Pioggia 22 19 83 1011 10 N/NE 7.4
Ieri h: 18:50 nuvoloso_piovaschi Rovescio di Pioggia 21 19 88 1012 9 N 5.5
Ieri h: 18:20 nuvoloso_piovaschi Rovescio di Pioggia Temporale nelle Vicinanze 21 19 88 1012 8 N 5.5
Ieri h: 17:50 nuvoloso_temporali Temporale con Pioggia 22 19 83 1011 6 S/SO 13
Ieri h: 17:20 nuvoloso_piovaschi Rovescio di Pioggia Temporale nelle Vicinanze 23 18 73 1011 9 S 20.3
Ieri h: 16:50 nuvoloso_piovaschi Rovescio di Pioggia Temporale nelle Vicinanze 26 18 61 1010 10 S 20.3
Ieri h: 16:20 molto_nuvoloso Molto Nuvoloso 27 18 57 1011 10 S 22.2
Ieri h: 15:50 nuvoloso Nuvoloso 28 17 51 1011 10 S 14.8
Ieri h: 15:20 nuvoloso Nuvoloso 28 17 51 1011 10 S 11.1
Ieri h: 14:50 nuvoloso Nuvoloso 28 18 54 1011 10 S 9.3
Ieri h: 14:20 molto_nuvoloso Molto Nuvoloso 27 18 57 1011 10 S 9.3
Ieri h: 13:50 molto_nuvoloso Molto Nuvoloso 26 17 57 1012 10 S 7.4